Flugplatz Gemen-Kirchspiel (UL)

Hier findest Du alle Informationen zum Flugplatz Gemen-Kirchspiel (UL).

Informationen für Piloten zum Flugplatz Gemen-Kirchspiel

Hier findest Du alle relevanten Informationen, die Du als Pilot benötigst, um Gemen-Kirchspiel anzufliegen.

Flugplatz: Gemen-Kirchspiel ICAO-Code: UL Flugplatz
Frequenz Turm: 000.00 Mhz GAFOR Gebiet: 32
Frequenz Ground: 000.00 Mhz Mogas: nein
Platzrunde: N 0 ft Landegebühr: -
Platzhöhe: Sunrise: 07:10 Uhr UTC
Pisten: 09/27 - 120 m x 50 m, GRAS Sunset: 15:30 Uhr UTC

Flugwetter am Flugplatz Gemen-Kirchspiel

Die METAR Information stammen aus EDDG (63.48 km entfernt).

METAR Code:
2020/11/24 16:50
EDDG 241650Z 14004KT CAVOK 07/05 Q1021 NOSIG

Flugschulen am Flugplatz Gemen-Kirchspiel

Am Flugplatz Gemen-Kirchspiel gibt es leider keine Flugschule.

Benachbarte Flugplätze und Flugschulen

Es gibt 12 weitere Flugplätze in einem Umkreis von 50 km um den Flugplatz Gemen-Kirchspiel.

Jetzt anmelden

Passwort vergessen

Umfrage Archiv

Wie viele Flugstunden seid Ihr in Eurer Pilotenausbildung geflogen?

31 - 40 Stunden
50 %
41 - 50 Stunden
21.2 %
exakt 30 Stunden
15.4 %
über 60 Stunden
7.7 %
51 - 60 Stunden
5.8 %
Stimmen: 52 | Diskussion
Anzeige: Roland Aircraft
Statistik Alle Mitglieder

Aktuell sind 28 Besucher online.

Anzeige: VFR Sprechfunk Simulator


Anzeige: Pocket FMS